Saturday, November 22, 2014
02:58 UTC
  |  Log In   |  Register Free
Airport Search:

Gainesville Municipal Airport
(KGLE)

FAA data valid effective November 13, 2014 - January 08, 2015 (unless otherwise noted).

 
 
 
 
 
 
 
 
 
 
 
 
 
 

Current Aviation Weather for Gainesville Municipal Airport (KGLE)

The most recent METAR observation for KGLE was updated at: 0123
METAR Summary (Translated METAR)
KGLE
220055Z AUTO 13011G16KT 7SM OVC008 17/15 A3007 RMK AO2 T01700153
KGYI
220055Z AUTO 13011G16KT 10SM OVC007 18/17 A3007 RMK AO2 T01750167
(26.4 nm NE from KGLE)
KDTO
220053Z 14014KT 9SM BKN014 OVC024 18/16 A3004 RMK AO2 SLP169 T01830161
(27 nm SW from KGLE)
TAF
No TAF information found within 50 nm of KGLE
  Airport Weather Conditions for KGLE

 Current Weather at GLE
63° F
Overcast
Southeast winds at 13.8 mph
GLE NOAA Radar

Pressure: 30.07 in
Humidity: 91%
Wind: Southeast at 13.8 MPH (12 KT)
Dew Point: 59.9°F
Visibility: 7.00 mi


Airport Weather Forecast for KGLE

Translated METAR and TAF for KGLE
Translated METAR for KGLE (0253 UTC 22 November 2014)
found at http://aviationweather.gov/adds/metars/
 
METAR text: KGLE 220235Z AUTO 13011KT 7SM OVC009 17/16 A3009 RMK AO2 T01710157
Conditions at: KGLE (GAINESVILLE , TX, US) observed 0235 UTC 22 November 2014
Temperature: 17.1°C (63°F)
Dewpoint: 15.7°C (60°F) [RH = 91%]
Pressure (altimeter): 30.09 inches Hg (1019.0 mb)
Winds: from the SE (130 degrees) at 13 MPH (11 knots; 5.7 m/s)
Visibility: 7 miles (11 km)
Ceiling: 900 feet AGL
Clouds: overcast cloud deck at 900 feet AGL
Weather: automated observation with no human augmentation;
there may or may not be significant weather present at this time
Translated TAF for KGLE

There is no translated TAF available for this airport

Find All Airport Services Find A Hotel Find A Rental Car Find A Golf Course Find A Restaurant $100 Hamburger



FBO's on the Field
FBO Company Facility Photos Services Transportation Aviation Fuel Prices: Prices include tax
Catering Weather Repair Courtesy Rental Type 100LL JetA JetA+ MOGAS 8087
 
City of Gainesville Municipal Airport

This FBO has not yet been rated
FS:Phillips 66
Last Updated: Nov-10
Login to update fuel prices
SS:
Contact City of Gainesville Municipal AirportMore FBO Information
 
Add another FBO Facility Photos Catering Weather Repair Courtesy Rental Type 100LL JetA JetA+ MOGAS 8087
Services Transportation Aviation Fuel Prices: Prices include tax


model-print
model-print
model-print
model-print